createdAt,value
2018-02-20T00:01:43.932Z,22.20
2018-02-20T00:04:11.501Z,22.15
2018-02-20T00:06:39.097Z,22.45
2018-02-20T00:09:06.670Z,22.80
2018-02-20T00:11:34.279Z,23.08
2018-02-20T00:14:01.850Z,23.42
2018-02-20T00:16:30.319Z,21.85
2018-02-20T00:18:57.923Z,21.70
2018-02-20T00:21:25.486Z,22.58
2018-02-20T00:23:53.059Z,25.45
2018-02-20T00:26:20.618Z,23.00
2018-02-20T00:28:48.186Z,22.50
2018-02-20T00:31:15.758Z,24.50
2018-02-20T00:33:43.370Z,24.75
2018-02-20T00:36:11.830Z,25.27
2018-02-20T00:38:39.387Z,26.83
2018-02-20T00:41:06.948Z,25.98
2018-02-20T00:43:34.547Z,24.95
2018-02-20T00:46:02.152Z,24.15
2018-02-20T00:48:29.723Z,25.33
2018-02-20T00:50:57.322Z,25.58
2018-02-20T00:53:24.917Z,25.95
2018-02-20T00:55:52.536Z,25.40
2018-02-20T00:58:20.095Z,26.10
2018-02-20T01:00:47.656Z,26.02
2018-02-20T01:03:15.256Z,27.73
2018-02-20T01:05:42.855Z,25.73
2018-02-20T01:08:10.417Z,26.67
2018-02-20T01:10:38.012Z,29.70
2018-02-20T01:13:05.610Z,29.58
2018-02-20T01:15:33.165Z,28.38
2018-02-20T01:18:00.722Z,30.77
2018-02-20T01:20:28.330Z,31.40
2018-02-20T01:22:55.887Z,28.83
2018-02-20T01:25:23.446Z,28.67
2018-02-20T01:27:51.013Z,31.87
2018-02-20T01:30:18.576Z,32.65
2018-02-20T01:32:46.172Z,31.52
2018-02-20T01:35:13.746Z,31.42
2018-02-20T01:37:41.346Z,33.40
2018-02-20T01:40:08.908Z,34.03
2018-02-20T01:42:36.503Z,32.92
2018-02-20T01:45:04.071Z,32.45
2018-02-20T01:47:31.659Z,33.22
2018-02-20T01:49:59.221Z,34.38
2018-02-20T01:52:26.820Z,31.75
2018-02-20T01:54:54.387Z,34.60
2018-02-20T01:57:21.943Z,32.67
2018-02-20T01:59:49.508Z,33.55
2018-02-20T02:02:17.071Z,34.00
2018-02-20T02:04:44.632Z,35.58
2018-02-20T02:07:12.185Z,33.33
2018-02-20T02:09:39.748Z,33.63
2018-02-20T02:12:07.364Z,40.28
2018-02-20T02:14:34.923Z,37.72
2018-02-20T02:17:02.483Z,36.28
2018-02-20T02:19:30.045Z,36.55
2018-02-20T02:21:57.620Z,35.30
2018-02-20T02:24:25.178Z,33.25
2018-02-20T02:26:52.739Z,34.38
2018-02-20T02:29:20.298Z,31.90
2018-02-20T02:31:48.663Z,33.58
2018-02-20T02:34:17.008Z,35.10
2018-02-20T02:36:44.572Z,36.28
2018-02-20T02:39:12.134Z,35.88
2018-02-20T02:41:39.694Z,34.42
2018-02-20T02:44:07.256Z,35.80
2018-02-20T02:46:34.810Z,35.30
2018-02-20T02:49:02.371Z,35.53
2018-02-20T02:51:29.922Z,35.83
2018-02-20T02:53:57.475Z,35.88
2018-02-20T02:56:25.072Z,34.80
2018-02-20T02:58:53.452Z,40.53
2018-02-20T03:01:21.060Z,36.05
2018-02-20T03:03:48.627Z,37.50
2018-02-20T03:06:16.189Z,37.65
2018-02-20T03:08:43.751Z,36.63
2018-02-20T03:11:12.239Z,37.53
2018-02-20T03:13:39.793Z,37.00
2018-02-20T03:16:07.362Z,37.70
2018-02-20T03:18:34.922Z,37.47
2018-02-20T03:21:02.479Z,34.80
2018-02-20T03:23:30.067Z,33.50
2018-02-20T03:25:57.624Z,35.92
2018-02-20T03:28:26.000Z,38.35
2018-02-20T03:30:53.559Z,36.70
2018-02-20T03:33:21.122Z,38.15
2018-02-20T03:35:49.483Z,35.80
2018-02-20T03:38:17.042Z,35.40
2018-02-20T03:40:44.601Z,37.47
2018-02-20T03:43:12.872Z,38.42
2018-02-20T03:45:41.265Z,37.70
2018-02-20T03:48:09.623Z,36.38
2018-02-20T03:50:37.943Z,37.20
2018-02-20T03:53:06.298Z,36.15
2018-02-20T03:55:34.648Z,37.45
2018-02-20T03:58:03.015Z,35.65
2018-02-20T04:00:31.367Z,36.85
2018-02-20T04:02:59.708Z,37.35
2018-02-20T04:05:28.086Z,35.67
2018-02-20T04:07:56.441Z,37.22
2018-02-20T04:10:24.782Z,37.95
2018-02-20T04:12:53.087Z,38.85
2018-02-20T04:15:21.403Z,40.63
2018-02-20T04:17:49.727Z,35.65
2018-02-20T04:20:18.170Z,37.70
2018-02-20T04:22:46.558Z,34.35
2018-02-20T04:25:14.952Z,35.75
2018-02-20T04:27:42.520Z,38.30
2018-02-20T04:30:10.077Z,33.63
2018-02-20T04:32:38.434Z,39.95
2018-02-20T04:35:05.996Z,35.17
2018-02-20T04:37:33.547Z,37.70
2018-02-20T04:40:02.552Z,36.63
2018-02-20T04:42:30.109Z,38.53
2018-02-20T04:44:57.708Z,35.75
2018-02-20T04:47:25.267Z,38.70
2018-02-20T04:49:53.787Z,37.85
2018-02-20T04:52:21.343Z,39.58
2018-02-20T04:54:49.754Z,38.20
2018-02-20T04:57:17.311Z,40.53
2018-02-20T04:59:44.872Z,41.67
2018-02-20T05:02:12.425Z,35.38
2018-02-20T05:04:40.855Z,41.00
2018-02-20T05:07:08.487Z,36.03
2018-02-20T05:09:36.440Z,39.90
2018-02-20T05:12:04.011Z,44.60
2018-02-20T05:14:32.481Z,40.72
2018-02-20T05:17:00.048Z,39.33
2018-02-20T05:19:27.606Z,37.85
2018-02-20T05:21:55.170Z,39.53
2018-02-20T05:24:23.565Z,38.50
2018-02-20T05:26:51.162Z,37.95
2018-02-20T05:29:18.727Z,38.15
2018-02-20T05:31:46.284Z,39.97
2018-02-20T05:34:13.851Z,35.60
2018-02-20T05:36:42.302Z,36.92
2018-02-20T05:39:09.907Z,39.78
2018-02-20T05:41:38.187Z,39.10
2018-02-20T05:44:05.744Z,38.50
2018-02-20T05:46:33.303Z,40.65
2018-02-20T05:49:00.866Z,38.67
2018-02-20T05:51:28.470Z,37.80
2018-02-20T05:53:56.012Z,40.15
2018-02-20T05:56:23.682Z,40.33
2018-02-20T05:58:51.240Z,37.55
2018-02-20T06:01:19.574Z,38.85
2018-02-20T06:03:47.220Z,39.60
2018-02-20T06:06:14.865Z,41.53
2018-02-20T06:08:42.505Z,41.55
2018-02-20T06:11:10.091Z,38.35
2018-02-20T06:13:38.378Z,38.55
2018-02-20T06:16:05.983Z,41.25
2018-02-20T06:18:33.546Z,41.37
2018-02-20T06:21:01.155Z,40.80
2018-02-20T06:23:28.742Z,38.28
2018-02-20T06:25:57.206Z,41.42
2018-02-20T06:28:24.762Z,43.85
2018-02-20T06:30:52.352Z,37.00
2018-02-20T06:33:19.912Z,42.88
2018-02-20T06:35:47.471Z,40.72
2018-02-20T06:38:15.833Z,38.58
2018-02-20T06:40:43.434Z,40.83
2018-02-20T06:43:10.998Z,39.33
2018-02-20T06:45:38.591Z,39.55
2018-02-20T06:48:06.146Z,38.25
2018-02-20T06:50:33.706Z,42.78
2018-02-20T06:53:01.267Z,42.95
2018-02-20T06:55:28.862Z,39.97
2018-02-20T06:57:56.506Z,41.00
2018-02-20T07:00:24.099Z,42.60
2018-02-20T07:02:51.678Z,39.50
2018-02-20T07:05:19.278Z,37.72
2018-02-20T07:07:47.744Z,40.55
2018-02-20T07:10:15.338Z,39.58
2018-02-20T07:12:43.002Z,39.13
2018-02-20T07:15:11.396Z,39.30
2018-02-20T07:17:39.794Z,39.72
2018-02-20T07:20:08.233Z,40.40
2018-02-20T07:22:35.803Z,41.05
2018-02-20T07:25:03.371Z,41.97
2018-02-20T07:27:30.926Z,38.10
2018-02-20T07:29:59.175Z,40.60
2018-02-20T07:32:27.471Z,41.90
2018-02-20T07:34:55.915Z,38.38
2018-02-20T07:37:23.507Z,39.80
2018-02-20T07:39:51.106Z,41.72
2018-02-20T07:42:18.747Z,41.90
2018-02-20T07:44:46.338Z,37.97
2018-02-20T07:47:14.678Z,44.50
2018-02-20T07:49:43.031Z,41.50
2018-02-20T07:52:10.591Z,38.95
2018-02-20T07:54:38.187Z,40.50
2018-02-20T07:57:06.568Z,40.05
2018-02-20T07:59:34.137Z,40.28
2018-02-20T08:02:02.526Z,41.80
2018-02-20T08:04:30.990Z,40.25
2018-02-20T08:06:59.338Z,39.10
2018-02-20T08:09:27.697Z,38.85
2018-02-20T08:11:55.258Z,39.70
2018-02-20T08:14:22.823Z,40.28
2018-02-20T08:16:51.321Z,38.00
2018-02-20T08:19:19.697Z,40.05
2018-02-20T08:21:47.755Z,39.85
2018-02-20T08:24:15.315Z,39.65
2018-02-20T08:26:42.908Z,39.05
2018-02-20T08:29:10.516Z,40.30
2018-02-20T08:31:38.910Z,37.80
2018-02-20T08:34:07.409Z,39.63
2018-02-20T08:36:35.795Z,40.50
2018-02-20T08:39:03.396Z,38.47
2018-02-20T08:41:30.950Z,41.45
2018-02-20T08:43:58.580Z,38.08
2018-02-20T08:46:27.083Z,37.47
2018-02-20T08:48:55.479Z,39.58
2018-02-20T08:51:23.033Z,39.75
2018-02-20T08:53:51.442Z,39.47
2018-02-20T08:56:19.034Z,40.72
2018-02-20T08:58:46.587Z,40.60
2018-02-20T09:01:14.179Z,37.47
2018-02-20T09:03:41.758Z,36.33
2018-02-20T09:06:09.326Z,40.22
2018-02-20T09:08:36.891Z,36.55
2018-02-20T09:11:04.447Z,39.33
2018-02-20T09:13:32.009Z,36.50
2018-02-20T09:15:59.563Z,35.57
2018-02-20T09:18:27.119Z,38.22
2018-02-20T09:20:54.675Z,40.10
2018-02-20T09:23:22.539Z,39.17
2018-02-20T09:25:50.099Z,41.10
2018-02-20T09:28:17.652Z,36.67
2018-02-20T09:30:45.205Z,36.33
2018-02-20T09:33:12.810Z,39.17
2018-02-20T09:35:41.307Z,35.90
2018-02-20T09:38:08.910Z,37.97
2018-02-20T09:40:36.456Z,40.00
2018-02-20T09:43:04.006Z,39.40
2018-02-20T09:45:31.558Z,38.63
2018-02-20T09:47:59.110Z,39.63
2018-02-20T09:50:26.704Z,38.07
2018-02-20T09:52:54.246Z,35.63
2018-02-20T09:55:22.763Z,39.70
2018-02-20T09:57:51.131Z,36.87
2018-02-20T10:00:18.717Z,37.37
2018-02-20T10:02:46.262Z,39.90
2018-02-20T10:05:14.607Z,34.70
2018-02-20T10:07:42.157Z,36.33
2018-02-20T10:10:09.708Z,36.47
2018-02-20T10:12:37.294Z,37.83
2018-02-20T10:15:04.851Z,36.60
2018-02-20T10:17:33.298Z,33.80
2018-02-20T10:20:02.294Z,37.10
2018-02-20T10:22:29.919Z,36.90
2018-02-20T10:24:57.505Z,38.67
2018-02-20T10:27:25.054Z,35.90
2018-02-20T10:29:52.645Z,35.00
2018-02-20T10:32:20.190Z,37.57
2018-02-20T10:34:48.554Z,36.73
2018-02-20T10:37:16.102Z,34.07
2018-02-20T10:42:16.616Z,36.40
2018-02-20T10:44:44.198Z,33.40
2018-02-20T10:47:12.481Z,33.60
2018-02-20T10:49:40.072Z,35.93
2018-02-20T10:52:08.473Z,35.20
2018-02-20T10:54:37.097Z,34.00
2018-02-20T10:57:05.482Z,33.80
2018-02-20T10:59:33.838Z,33.77
2018-02-20T11:02:02.198Z,32.10
2018-02-20T11:04:30.543Z,31.43
2018-02-20T11:06:58.162Z,34.10
2018-02-20T11:09:26.422Z,32.17
2018-02-20T11:11:54.002Z,32.77
2018-02-20T11:14:22.485Z,33.50
2018-02-20T11:16:51.896Z,32.33
2018-02-20T11:19:18.366Z,30.00
2018-02-20T11:21:46.634Z,35.20
2018-02-20T11:24:14.246Z,28.97
2018-02-20T11:26:42.729Z,28.70
2018-02-20T11:29:10.337Z,25.03
2018-02-20T11:31:37.916Z,26.10
2018-02-20T11:34:05.534Z,29.10
2018-02-20T11:36:33.898Z,24.80
2018-02-20T11:39:01.474Z,24.30
2018-02-20T11:41:29.753Z,26.50
2018-02-20T11:43:57.333Z,24.83
2018-02-20T11:46:25.754Z,24.50
2018-02-20T11:48:53.362Z,25.87
2018-02-20T11:51:21.789Z,22.70
2018-02-20T11:53:49.371Z,24.60
2018-02-20T11:56:17.841Z,23.20
2018-02-20T11:58:46.243Z,25.40
2018-02-20T12:01:14.643Z,22.87
2018-02-20T12:03:43.014Z,21.00
2018-02-20T12:06:11.386Z,23.40
2018-02-20T12:08:39.775Z,21.00
2018-02-20T12:11:08.334Z,23.57
2018-02-20T12:13:36.870Z,21.20
2018-02-20T12:16:04.448Z,23.03
2018-02-20T12:18:32.874Z,22.87
2018-02-20T12:21:00.450Z,21.33
2018-02-20T12:23:28.928Z,20.83
2018-02-20T12:25:56.497Z,20.37
2018-02-20T12:28:24.071Z,21.83
2018-02-20T12:30:51.646Z,19.87
2018-02-20T12:33:19.221Z,21.03
2018-02-20T12:35:46.805Z,19.90
2018-02-20T12:38:14.382Z,17.67
2018-02-20T12:40:41.954Z,18.50
2018-02-20T12:43:09.532Z,17.97
2018-02-20T12:45:37.110Z,19.30
2018-02-20T12:48:04.681Z,19.77
2018-02-20T12:50:32.254Z,19.80
2018-02-20T12:52:59.838Z,22.57
2018-02-20T12:55:27.417Z,20.40
2018-02-20T12:57:55.040Z,21.83
2018-02-20T13:00:22.620Z,18.53
2018-02-20T13:02:50.190Z,20.63
2018-02-20T13:05:17.766Z,18.90
2018-02-20T13:07:45.347Z,21.67
2018-02-20T13:10:12.926Z,19.47
2018-02-20T13:12:40.503Z,20.30
2018-02-20T13:15:08.993Z,21.23
2018-02-20T13:17:36.649Z,19.97
2018-02-20T13:20:04.272Z,21.00
2018-02-20T13:22:31.845Z,19.90
2018-02-20T13:25:00.250Z,18.33
2018-02-20T13:27:27.826Z,18.60
2018-02-20T13:29:55.435Z,18.77
2018-02-20T13:32:23.948Z,21.33
2018-02-20T13:34:51.568Z,19.50
2018-02-20T13:37:19.928Z,19.70
2018-02-20T13:39:47.504Z,18.37
2018-02-20T13:42:15.882Z,18.13
2018-02-20T13:44:43.463Z,17.67
2018-02-20T13:47:11.746Z,17.07
2018-02-20T13:49:40.371Z,18.93
2018-02-20T13:52:08.180Z,16.60
2018-02-20T13:54:35.754Z,17.77
2018-02-20T13:57:03.366Z,17.50
2018-02-20T13:59:30.947Z,16.63
2018-02-20T14:01:58.526Z,14.67
2018-02-20T14:04:26.110Z,14.93
2018-02-20T14:06:53.683Z,15.00
2018-02-20T14:09:21.265Z,15.40
2018-02-20T14:11:48.848Z,15.80
2018-02-20T14:14:16.425Z,13.10
2018-02-20T14:16:44.908Z,14.77
2018-02-20T14:19:12.992Z,14.87
2018-02-20T14:21:40.634Z,13.33
2018-02-20T14:24:08.210Z,11.97
2018-02-20T14:26:35.886Z,13.67
2018-02-20T14:29:04.365Z,12.10
2018-02-20T14:31:32.830Z,12.97
2018-02-20T14:34:00.511Z,13.17
2018-02-20T14:36:28.924Z,12.97
2018-02-20T14:38:57.211Z,13.57
2018-02-20T14:41:25.598Z,11.97
2018-02-20T14:43:54.006Z,11.83
2018-02-20T14:46:22.383Z,13.53
2018-02-20T14:48:50.022Z,12.70
2018-02-20T14:51:18.538Z,13.20
2018-02-20T14:53:47.139Z,15.57
2018-02-20T14:56:15.771Z,17.33
2018-02-20T14:58:45.201Z,14.87
2018-02-20T15:01:13.648Z,15.37
2018-02-20T15:03:42.147Z,17.10
2018-02-20T15:06:10.514Z,13.23
2018-02-20T15:08:38.140Z,13.40
2018-02-20T15:11:06.629Z,13.87
2018-02-20T15:13:34.947Z,14.67
2018-02-20T15:16:03.439Z,13.60
2018-02-20T15:18:31.801Z,13.67
2018-02-20T15:21:00.318Z,12.33
2018-02-20T15:23:28.622Z,12.13
2018-02-20T15:25:56.264Z,11.73
2018-02-20T15:28:24.827Z,13.87
2018-02-20T15:30:53.138Z,15.40
2018-02-20T15:33:21.717Z,13.80
2018-02-20T15:35:49.660Z,12.20
2018-02-20T15:38:18.219Z,12.37
2018-02-20T15:40:46.587Z,11.30
2018-02-20T15:43:14.216Z,12.00
2018-02-20T15:45:41.846Z,12.33
2018-02-20T15:48:10.342Z,12.77
2018-02-20T15:50:37.961Z,12.20
2018-02-20T15:53:06.172Z,12.13
2018-02-20T15:55:33.810Z,13.67
2018-02-20T15:58:01.414Z,18.60
2018-02-20T16:00:29.009Z,12.93
2018-02-20T16:02:56.711Z,12.80
2018-02-20T16:05:24.307Z,13.23
2018-02-20T16:07:51.951Z,12.87
2018-02-20T16:10:20.487Z,12.43
2018-02-20T16:12:48.071Z,10.73
2018-02-20T16:15:15.664Z,12.37
2018-02-20T16:17:43.276Z,12.20
2018-02-20T16:20:10.862Z,13.73
2018-02-20T16:22:38.549Z,12.53
2018-02-20T16:25:06.128Z,14.30
2018-02-20T16:27:33.717Z,13.47
2018-02-20T16:30:01.306Z,14.13
2018-02-20T16:32:28.934Z,13.37
2018-02-20T16:34:56.562Z,12.70
2018-02-20T16:37:24.156Z,13.77
2018-02-20T16:39:51.738Z,14.00
2018-02-20T16:42:19.501Z,14.90
2018-02-20T16:44:47.078Z,14.00
2018-02-20T16:47:14.661Z,15.70
2018-02-20T16:49:43.153Z,15.98
2018-02-20T16:52:11.498Z,12.57
2018-02-20T16:54:39.117Z,14.63
2018-02-20T16:57:06.706Z,13.30
2018-02-20T16:59:34.337Z,13.37
2018-02-20T17:02:01.957Z,13.90
2018-02-20T17:04:29.593Z,14.30
2018-02-20T17:06:57.184Z,14.73
2018-02-20T17:09:24.801Z,12.90
2018-02-20T17:11:52.432Z,13.23
2018-02-20T17:14:20.069Z,12.90
2018-02-20T17:16:47.689Z,16.10
2018-02-20T17:19:15.414Z,13.90
2018-02-20T17:21:43.128Z,14.32
2018-02-20T17:24:10.691Z,14.15
2018-02-20T17:26:38.275Z,15.07
2018-02-20T17:29:05.855Z,15.77
2018-02-20T17:31:34.192Z,13.60
2018-02-20T17:34:01.819Z,13.32
2018-02-20T17:36:30.659Z,14.45
2018-02-20T17:38:59.474Z,13.32
2018-02-20T17:41:29.531Z,13.25
2018-02-20T17:43:58.615Z,13.60
2018-02-20T17:46:26.250Z,12.75
2018-02-20T17:49:03.662Z,13.90
2018-02-20T17:51:31.350Z,14.10
2018-02-20T17:53:59.853Z,14.43
2018-02-20T17:56:27.574Z,14.13
2018-02-20T17:58:55.224Z,15.40
2018-02-20T18:01:36.529Z,14.00
2018-02-20T18:04:14.941Z,14.30
2018-02-20T18:07:05.721Z,12.50
2018-02-20T18:09:35.966Z,13.73
2018-02-20T18:12:03.939Z,15.02
2018-02-20T18:14:32.129Z,14.90
2018-02-20T18:17:03.989Z,12.30
2018-02-20T18:19:32.474Z,12.80
2018-02-20T18:22:00.690Z,12.43
2018-02-20T18:24:28.591Z,12.95
2018-02-20T18:26:58.723Z,13.15
2018-02-20T18:29:28.340Z,12.68
2018-02-20T18:32:01.624Z,13.30
2018-02-20T18:34:29.402Z,13.13
2018-02-20T18:36:57.773Z,13.02
2018-02-20T18:39:25.640Z,12.23
2018-02-20T18:42:07.829Z,10.70
2018-02-20T18:44:37.158Z,12.20
2018-02-20T18:53:20.632Z,13.02
2018-02-20T19:03:39.279Z,13.32
2018-02-20T19:10:14.808Z,14.05
2018-02-20T19:19:08.671Z,15.23
2018-02-20T19:24:40.910Z,14.90
2018-02-20T19:27:08.528Z,14.98
2018-02-20T19:29:36.451Z,13.93
2018-02-20T19:32:04.265Z,14.52
2018-02-20T19:34:31.878Z,13.55
2018-02-20T19:36:59.467Z,15.60
2018-02-20T19:39:27.127Z,14.35
2018-02-20T19:41:55.661Z,14.55
2018-02-20T19:44:24.039Z,16.45
2018-02-20T19:46:52.596Z,18.05
2018-02-20T19:49:23.448Z,18.87
2018-02-20T19:51:59.224Z,16.45
2018-02-20T19:54:26.909Z,17.02
2018-02-20T19:56:54.504Z,18.52
2018-02-20T19:59:22.096Z,18.20
2018-02-20T20:01:49.691Z,17.85
2018-02-20T20:04:17.287Z,17.58
2018-02-20T20:06:45.468Z,18.50
2018-02-20T20:09:13.144Z,20.62
2018-02-20T20:11:40.735Z,19.77
2018-02-20T20:14:08.355Z,18.42
2018-02-20T20:16:35.984Z,18.85
2018-02-20T20:19:03.649Z,20.42
2018-02-20T20:21:31.321Z,22.45
2018-02-20T20:23:58.889Z,21.65
2018-02-20T20:26:26.536Z,21.37
2018-02-20T20:28:54.119Z,24.50
2018-02-20T20:31:21.765Z,22.45
2018-02-20T20:33:49.394Z,20.98
2018-02-20T20:36:16.986Z,21.62
2018-02-20T20:38:44.610Z,19.73
2018-02-20T20:41:12.198Z,21.65
2018-02-20T20:43:39.810Z,22.05
2018-02-20T20:46:07.385Z,20.52
2018-02-20T20:48:35.750Z,27.50
2018-02-20T20:51:03.338Z,23.85
2018-02-20T20:53:31.799Z,23.52
2018-02-20T20:56:00.452Z,26.20
2018-02-20T20:58:28.092Z,25.30
2018-02-20T21:00:55.814Z,22.95
2018-02-20T21:03:23.438Z,23.23
2018-02-20T21:05:51.894Z,24.48
2018-02-20T21:08:20.485Z,22.13
2018-02-20T21:10:48.099Z,23.50
2018-02-20T21:13:16.428Z,23.92
2018-02-20T21:15:44.018Z,20.73
2018-02-20T21:18:12.470Z,25.45
2018-02-20T21:20:40.830Z,24.08
2018-02-20T21:23:09.395Z,24.70
2018-02-20T21:25:36.986Z,25.62
2018-02-20T21:28:04.578Z,24.85
2018-02-20T21:30:36.479Z,24.30
2018-02-20T21:33:06.548Z,26.90
2018-02-20T21:35:34.577Z,25.88
2018-02-20T21:38:03.894Z,27.15
2018-02-20T21:40:33.798Z,28.27
2018-02-20T21:43:01.459Z,26.42
2018-02-20T21:45:29.529Z,24.80
2018-02-20T21:47:57.267Z,25.65
2018-02-20T21:50:25.615Z,26.58
2018-02-20T21:52:53.311Z,25.42
2018-02-20T21:55:21.716Z,25.55
2018-02-20T21:57:49.347Z,24.63
2018-02-20T22:00:18.101Z,27.90
2018-02-20T22:02:45.727Z,25.73
2018-02-20T22:05:13.307Z,24.50
2018-02-20T22:07:41.484Z,24.60
2018-02-20T22:10:10.373Z,25.02
2018-02-20T22:12:38.728Z,25.42
2018-02-20T22:15:06.367Z,22.33
2018-02-20T22:17:36.412Z,24.90
2018-02-20T22:20:04.856Z,24.87
2018-02-20T22:22:33.540Z,24.20
2018-02-20T22:25:01.750Z,25.67
2018-02-20T22:27:30.128Z,25.45
2018-02-20T22:29:57.816Z,24.30
2018-02-20T22:32:25.419Z,22.92
2018-02-20T22:34:53.139Z,22.35
2018-02-20T22:37:20.884Z,20.80
2018-02-20T22:39:48.989Z,22.45
2018-02-20T22:42:16.626Z,23.70
2018-02-20T22:44:44.216Z,20.88
2018-02-20T22:47:12.102Z,22.60
2018-02-20T22:49:39.934Z,21.50
2018-02-20T22:52:07.604Z,22.90
2018-02-20T22:54:35.191Z,20.90
2018-02-20T22:57:02.925Z,21.83
2018-02-20T22:59:30.550Z,23.20
2018-02-20T23:01:58.171Z,21.65
2018-02-20T23:04:25.809Z,22.10
2018-02-20T23:06:53.452Z,20.85
2018-02-20T23:09:21.035Z,21.73
2018-02-20T23:11:48.736Z,20.83
2018-02-20T23:14:16.326Z,20.85
2018-02-20T23:16:43.909Z,18.65
2018-02-20T23:19:11.499Z,21.33
2018-02-20T23:21:39.078Z,21.10
2018-02-20T23:24:06.670Z,21.98
2018-02-20T23:26:34.256Z,20.67
2018-02-20T23:29:01.875Z,21.77
2018-02-20T23:31:30.397Z,19.35
2018-02-20T23:33:58.788Z,21.37
2018-02-20T23:36:26.372Z,20.62
2018-02-20T23:38:55.178Z,21.65
2018-02-20T23:41:23.505Z,20.33
2018-02-20T23:43:51.909Z,21.58
2018-02-20T23:46:19.497Z,22.60
2018-02-20T23:48:47.086Z,19.70
2018-02-20T23:51:21.242Z,19.90
2018-02-20T23:53:48.833Z,19.50
2018-02-20T23:56:16.464Z,20.75
2018-02-20T23:58:44.949Z,20.12
